sensor_id;sensor_type;location;lat;lon;timestamp;temperature;humidity
4324;DHT22;2175;51.018;6.994;2023-03-25T00:03:57;9.90;99.90
4324;DHT22;2175;51.018;6.994;2023-03-25T00:06:23;10.00;99.90
4324;DHT22;2175;51.018;6.994;2023-03-25T00:11:56;9.80;99.90
4324;DHT22;2175;51.018;6.994;2023-03-25T00:14:36;9.80;99.90
4324;DHT22;2175;51.018;6.994;2023-03-25T00:17:04;9.90;99.90
4324;DHT22;2175;51.018;6.994;2023-03-25T00:19:31;9.80;99.90
4324;DHT22;2175;51.018;6.994;2023-03-25T00:21:58;9.80;99.90
4324;DHT22;2175;51.018;6.994;2023-03-25T00:24:24;9.80;99.90
4324;DHT22;2175;51.018;6.994;2023-03-25T00:26:49;9.80;99.90
4324;DHT22;2175;51.018;6.994;2023-03-25T00:29:15;9.90;99.90
4324;DHT22;2175;51.018;6.994;2023-03-25T00:31:41;10.00;99.90
4324;DHT22;2175;51.018;6.994;2023-03-25T00:34:07;10.00;99.90
4324;DHT22;2175;51.018;6.994;2023-03-25T00:36:34;9.90;99.90
4324;DHT22;2175;51.018;6.994;2023-03-25T00:39:03;9.90;99.90
4324;DHT22;2175;51.018;6.994;2023-03-25T00:41:29;10.00;99.90
4324;DHT22;2175;51.018;6.994;2023-03-25T00:43:56;9.90;99.90
4324;DHT22;2175;51.018;6.994;2023-03-25T00:46:23;10.00;99.90
4324;DHT22;2175;51.018;6.994;2023-03-25T00:48:51;10.00;99.90
4324;DHT22;2175;51.018;6.994;2023-03-25T00:51:18;10.00;99.90
4324;DHT22;2175;51.018;6.994;2023-03-25T00:53:47;10.00;99.90
4324;DHT22;2175;51.018;6.994;2023-03-25T00:56:16;10.00;99.90
4324;DHT22;2175;51.018;6.994;2023-03-25T00:58:42;10.10;99.90
4324;DHT22;2175;51.018;6.994;2023-03-25T01:01:16;10.10;99.90
4324;DHT22;2175;51.018;6.994;2023-03-25T01:03:43;10.10;99.90
4324;DHT22;2175;51.018;6.994;2023-03-25T01:06:16;10.10;99.90
4324;DHT22;2175;51.018;6.994;2023-03-25T01:08:43;10.00;99.90
4324;DHT22;2175;51.018;6.994;2023-03-25T01:11:21;10.10;99.90
4324;DHT22;2175;51.018;6.994;2023-03-25T01:13:47;10.10;99.90
4324;DHT22;2175;51.018;6.994;2023-03-25T01:16:16;10.10;99.90
4324;DHT22;2175;51.018;6.994;2023-03-25T01:18:42;10.10;99.90
4324;DHT22;2175;51.018;6.994;2023-03-25T01:21:11;10.20;99.90
4324;DHT22;2175;51.018;6.994;2023-03-25T01:23:39;10.20;99.90
4324;DHT22;2175;51.018;6.994;2023-03-25T01:26:05;10.00;99.90
4324;DHT22;2175;51.018;6.994;2023-03-25T01:28:31;10.10;99.90
4324;DHT22;2175;51.018;6.994;2023-03-25T01:31:05;10.10;99.90
4324;DHT22;2175;51.018;6.994;2023-03-25T01:33:32;10.20;99.90
4324;DHT22;2175;51.018;6.994;2023-03-25T01:35:59;10.10;99.90
4324;DHT22;2175;51.018;6.994;2023-03-25T01:38:25;10.00;99.90
4324;DHT22;2175;51.018;6.994;2023-03-25T01:40:52;9.90;99.90
4324;DHT22;2175;51.018;6.994;2023-03-25T01:43:19;10.10;99.90
4324;DHT22;2175;51.018;6.994;2023-03-25T01:45:45;10.00;99.90
4324;DHT22;2175;51.018;6.994;2023-03-25T01:48:17;9.90;99.90
4324;DHT22;2175;51.018;6.994;2023-03-25T01:50:53;10.00;99.90
4324;DHT22;2175;51.018;6.994;2023-03-25T01:53:20;10.00;99.90
4324;DHT22;2175;51.018;6.994;2023-03-25T01:55:45;10.00;99.90
4324;DHT22;2175;51.018;6.994;2023-03-25T01:58:15;10.00;99.90
4324;DHT22;2175;51.018;6.994;2023-03-25T02:00:43;10.00;99.90
4324;DHT22;2175;51.018;6.994;2023-03-25T02:03:10;10.00;99.90
4324;DHT22;2175;51.018;6.994;2023-03-25T02:05:52;10.00;99.90
4324;DHT22;2175;51.018;6.994;2023-03-25T02:08:21;10.10;99.90
4324;DHT22;2175;51.018;6.994;2023-03-25T02:10:47;10.00;99.90
4324;DHT22;2175;51.018;6.994;2023-03-25T02:13:13;10.00;99.90
4324;DHT22;2175;51.018;6.994;2023-03-25T02:16:16;9.80;99.90
4324;DHT22;2175;51.018;6.994;2023-03-25T02:39:10;9.50;99.90
4324;DHT22;2175;51.018;6.994;2023-03-25T02:41:46;9.40;99.90
4324;DHT22;2175;51.018;6.994;2023-03-25T02:44:22;9.40;99.90
4324;DHT22;2175;51.018;6.994;2023-03-25T02:46:53;9.40;99.90
4324;DHT22;2175;51.018;6.994;2023-03-25T02:49:35;9.40;99.90
4324;DHT22;2175;51.018;6.994;2023-03-25T02:52:13;9.50;99.90
4324;DHT22;2175;51.018;6.994;2023-03-25T02:54:43;9.50;99.90
4324;DHT22;2175;51.018;6.994;2023-03-25T02:57:18;9.50;99.90
4324;DHT22;2175;51.018;6.994;2023-03-25T02:59:46;9.40;99.90
4324;DHT22;2175;51.018;6.994;2023-03-25T03:02:14;9.50;99.90
4324;DHT22;2175;51.018;6.994;2023-03-25T03:04:55;9.50;99.90
4324;DHT22;2175;51.018;6.994;2023-03-25T03:07:28;9.50;99.90
4324;DHT22;2175;51.018;6.994;2023-03-25T03:10:06;9.50;99.90
4324;DHT22;2175;51.018;6.994;2023-03-25T03:12:54;9.60;99.90
4324;DHT22;2175;51.018;6.994;2023-03-25T03:21:43;9.40;99.90
4324;DHT22;2175;51.018;6.994;2023-03-25T03:24:25;9.40;99.90
4324;DHT22;2175;51.018;6.994;2023-03-25T03:27:02;9.50;99.90
4324;DHT22;2175;51.018;6.994;2023-03-25T03:29:38;9.50;99.90
4324;DHT22;2175;51.018;6.994;2023-03-25T03:32:11;9.60;99.90
4324;DHT22;2175;51.018;6.994;2023-03-25T03:35:00;9.40;99.90
4324;DHT22;2175;51.018;6.994;2023-03-25T03:37:39;9.40;99.90
4324;DHT22;2175;51.018;6.994;2023-03-25T03:40:09;9.40;99.90
4324;DHT22;2175;51.018;6.994;2023-03-25T03:42:45;9.40;99.90
4324;DHT22;2175;51.018;6.994;2023-03-25T03:45:19;9.50;99.90
4324;DHT22;2175;51.018;6.994;2023-03-25T03:47:50;9.50;99.90
4324;DHT22;2175;51.018;6.994;2023-03-25T03:50:28;9.50;99.90
4324;DHT22;2175;51.018;6.994;2023-03-25T03:53:10;9.60;99.90
4324;DHT22;2175;51.018;6.994;2023-03-25T03:55:58;9.60;99.90
4324;DHT22;2175;51.018;6.994;2023-03-25T03:58:35;9.60;99.90
4324;DHT22;2175;51.018;6.994;2023-03-25T04:01:09;9.50;99.90
4324;DHT22;2175;51.018;6.994;2023-03-25T04:03:54;9.40;99.90
4324;DHT22;2175;51.018;6.994;2023-03-25T04:06:26;9.30;99.90
4324;DHT22;2175;51.018;6.994;2023-03-25T04:12:02;9.30;99.90
4324;DHT22;2175;51.018;6.994;2023-03-25T04:14:29;9.30;99.90
4324;DHT22;2175;51.018;6.994;2023-03-25T04:16:58;9.50;99.90
4324;DHT22;2175;51.018;6.994;2023-03-25T04:19:25;9.40;99.90
4324;DHT22;2175;51.018;6.994;2023-03-25T04:21:52;9.40;99.90
4324;DHT22;2175;51.018;6.994;2023-03-25T04:24:18;9.40;99.90
4324;DHT22;2175;51.018;6.994;2023-03-25T04:26:44;9.50;99.90
4324;DHT22;2175;51.018;6.994;2023-03-25T04:29:18;9.40;99.90
4324;DHT22;2175;51.018;6.994;2023-03-25T04:31:44;9.50;99.90
4324;DHT22;2175;51.018;6.994;2023-03-25T04:34:14;9.40;99.90
4324;DHT22;2175;51.018;6.994;2023-03-25T04:36:39;9.50;99.90
4324;DHT22;2175;51.018;6.994;2023-03-25T04:39:08;9.50;99.90
4324;DHT22;2175;51.018;6.994;2023-03-25T04:41:33;9.50;99.90
4324;DHT22;2175;51.018;6.994;2023-03-25T04:43:59;9.50;99.90
4324;DHT22;2175;51.018;6.994;2023-03-25T04:46:25;9.50;99.90
4324;DHT22;2175;51.018;6.994;2023-03-25T04:48:55;9.40;99.90
4324;DHT22;2175;51.018;6.994;2023-03-25T04:51:21;9.50;99.90
4324;DHT22;2175;51.018;6.994;2023-03-25T04:53:47;9.40;99.90
4324;DHT22;2175;51.018;6.994;2023-03-25T04:56:16;9.50;99.90
4324;DHT22;2175;51.018;6.994;2023-03-25T04:58:43;9.50;99.90
4324;DHT22;2175;51.018;6.994;2023-03-25T05:01:28;9.60;99.90
4324;DHT22;2175;51.018;6.994;2023-03-25T05:04:02;9.50;99.90
4324;DHT22;2175;51.018;6.994;2023-03-25T05:06:35;9.50;99.90
4324;DHT22;2175;51.018;6.994;2023-03-25T05:09:04;9.50;99.90
4324;DHT22;2175;51.018;6.994;2023-03-25T05:11:35;9.50;99.90
4324;DHT22;2175;51.018;6.994;2023-03-25T05:14:01;9.50;99.90
4324;DHT22;2175;51.018;6.994;2023-03-25T05:16:28;9.60;99.90
4324;DHT22;2175;51.018;6.994;2023-03-25T05:18:53;9.60;99.90
4324;DHT22;2175;51.018;6.994;2023-03-25T05:21:19;9.50;99.90
4324;DHT22;2175;51.018;6.994;2023-03-25T05:23:46;9.50;99.90
4324;DHT22;2175;51.018;6.994;2023-03-25T05:26:12;9.50;99.90
4324;DHT22;2175;51.018;6.994;2023-03-25T05:28:38;9.50;99.90
4324;DHT22;2175;51.018;6.994;2023-03-25T05:31:04;9.60;99.90
4324;DHT22;2175;51.018;6.994;2023-03-25T05:33:36;9.60;99.90
4324;DHT22;2175;51.018;6.994;2023-03-25T05:36:16;9.60;99.90
4324;DHT22;2175;51.018;6.994;2023-03-25T05:38:42;9.60;99.90
4324;DHT22;2175;51.018;6.994;2023-03-25T05:41:12;9.60;99.90
4324;DHT22;2175;51.018;6.994;2023-03-25T05:43:44;9.50;99.90
4324;DHT22;2175;51.018;6.994;2023-03-25T05:46:12;9.70;99.90
4324;DHT22;2175;51.018;6.994;2023-03-25T05:48:38;9.70;99.90
4324;DHT22;2175;51.018;6.994;2023-03-25T05:51:17;9.70;99.90
4324;DHT22;2175;51.018;6.994;2023-03-25T05:53:46;9.70;99.90
4324;DHT22;2175;51.018;6.994;2023-03-25T05:56:16;9.70;99.90
4324;DHT22;2175;51.018;6.994;2023-03-25T05:58:44;9.80;99.90
4324;DHT22;2175;51.018;6.994;2023-03-25T06:01:11;9.70;99.90
4324;DHT22;2175;51.018;6.994;2023-03-25T06:03:44;9.80;99.90
4324;DHT22;2175;51.018;6.994;2023-03-25T06:06:11;9.70;99.90
4324;DHT22;2175;51.018;6.994;2023-03-25T06:08:50;9.80;99.90
4324;DHT22;2175;51.018;6.994;2023-03-25T06:11:17;9.70;99.90
4324;DHT22;2175;51.018;6.994;2023-03-25T06:13:44;9.60;99.90
4324;DHT22;2175;51.018;6.994;2023-03-25T06:16:21;9.70;99.90
4324;DHT22;2175;51.018;6.994;2023-03-25T06:18:48;9.70;99.90
4324;DHT22;2175;51.018;6.994;2023-03-25T06:21:25;9.70;99.90
4324;DHT22;2175;51.018;6.994;2023-03-25T06:23:52;9.60;99.90
4324;DHT22;2175;51.018;6.994;2023-03-25T06:26:19;9.40;99.90
4324;DHT22;2175;51.018;6.994;2023-03-25T06:28:46;9.20;99.90
4324;DHT22;2175;51.018;6.994;2023-03-25T06:31:18;9.00;99.90
4324;DHT22;2175;51.018;6.994;2023-03-25T06:33:46;8.90;99.90
4324;DHT22;2175;51.018;6.994;2023-03-25T06:36:13;8.90;99.90
4324;DHT22;2175;51.018;6.994;2023-03-25T06:38:44;8.90;99.90
4324;DHT22;2175;51.018;6.994;2023-03-25T06:41:10;8.90;99.90
4324;DHT22;2175;51.018;6.994;2023-03-25T06:43:35;8.90;99.90
4324;DHT22;2175;51.018;6.994;2023-03-25T06:46:01;9.00;99.90
4324;DHT22;2175;51.018;6.994;2023-03-25T06:48:27;9.10;99.90
4324;DHT22;2175;51.018;6.994;2023-03-25T06:50:52;9.00;99.90
4324;DHT22;2175;51.018;6.994;2023-03-25T06:53:18;9.10;99.90
4324;DHT22;2175;51.018;6.994;2023-03-25T06:55:43;9.20;99.90
4324;DHT22;2175;51.018;6.994;2023-03-25T06:58:10;9.30;99.90
4324;DHT22;2175;51.018;6.994;2023-03-25T07:00:36;9.50;99.90
4324;DHT22;2175;51.018;6.994;2023-03-25T07:03:02;9.60;99.90
4324;DHT22;2175;51.018;6.994;2023-03-25T07:05:28;9.60;99.90
4324;DHT22;2175;51.018;6.994;2023-03-25T07:07:53;9.70;99.90
4324;DHT22;2175;51.018;6.994;2023-03-25T07:10:19;9.40;99.90
4324;DHT22;2175;51.018;6.994;2023-03-25T07:12:45;9.30;99.90
4324;DHT22;2175;51.018;6.994;2023-03-25T07:15:10;9.40;99.90
4324;DHT22;2175;51.018;6.994;2023-03-25T07:17:36;9.40;99.90
4324;DHT22;2175;51.018;6.994;2023-03-25T07:20:04;9.60;99.90
4324;DHT22;2175;51.018;6.994;2023-03-25T07:22:29;9.50;99.90
4324;DHT22;2175;51.018;6.994;2023-03-25T07:24:55;9.40;99.90
4324;DHT22;2175;51.018;6.994;2023-03-25T07:27:23;9.50;99.90
4324;DHT22;2175;51.018;6.994;2023-03-25T07:29:48;9.60;99.90
4324;DHT22;2175;51.018;6.994;2023-03-25T07:32:14;9.70;99.90
4324;DHT22;2175;51.018;6.994;2023-03-25T07:34:40;9.70;99.90
4324;DHT22;2175;51.018;6.994;2023-03-25T07:37:05;9.90;99.90
4324;DHT22;2175;51.018;6.994;2023-03-25T07:39:32;10.00;99.90
4324;DHT22;2175;51.018;6.994;2023-03-25T07:41:58;10.00;99.90
4324;DHT22;2175;51.018;6.994;2023-03-25T07:44:23;10.00;99.90
4324;DHT22;2175;51.018;6.994;2023-03-25T07:46:49;10.10;99.90
4324;DHT22;2175;51.018;6.994;2023-03-25T07:49:15;10.00;99.90
4324;DHT22;2175;51.018;6.994;2023-03-25T07:51:42;10.00;99.90
4324;DHT22;2175;51.018;6.994;2023-03-25T07:54:08;9.80;99.90
4324;DHT22;2175;51.018;6.994;2023-03-25T07:56:34;9.80;99.90
4324;DHT22;2175;51.018;6.994;2023-03-25T07:58:59;9.70;99.90
4324;DHT22;2175;51.018;6.994;2023-03-25T08:01:25;9.80;99.90
4324;DHT22;2175;51.018;6.994;2023-03-25T08:03:51;9.80;99.90
4324;DHT22;2175;51.018;6.994;2023-03-25T08:06:16;9.90;99.90
4324;DHT22;2175;51.018;6.994;2023-03-25T08:08:42;9.90;99.90
4324;DHT22;2175;51.018;6.994;2023-03-25T08:11:08;9.90;99.90
4324;DHT22;2175;51.018;6.994;2023-03-25T08:13:33;10.00;99.90
4324;DHT22;2175;51.018;6.994;2023-03-25T08:15:59;10.00;99.90
4324;DHT22;2175;51.018;6.994;2023-03-25T08:18:25;10.10;99.90
4324;DHT22;2175;51.018;6.994;2023-03-25T08:20:51;10.10;99.90
4324;DHT22;2175;51.018;6.994;2023-03-25T08:23:17;10.00;99.90
4324;DHT22;2175;51.018;6.994;2023-03-25T08:25:48;10.00;99.90
4324;DHT22;2175;51.018;6.994;2023-03-25T08:28:15;10.10;99.90
4324;DHT22;2175;51.018;6.994;2023-03-25T08:30:42;10.20;99.90
4324;DHT22;2175;51.018;6.994;2023-03-25T08:33:09;10.20;99.90
4324;DHT22;2175;51.018;6.994;2023-03-25T08:35:36;10.10;99.90
4324;DHT22;2175;51.018;6.994;2023-03-25T08:38:02;10.20;99.90
4324;DHT22;2175;51.018;6.994;2023-03-25T08:40:32;10.20;99.90
4324;DHT22;2175;51.018;6.994;2023-03-25T08:42:58;10.40;99.90
4324;DHT22;2175;51.018;6.994;2023-03-25T08:45:23;10.30;99.90
4324;DHT22;2175;51.018;6.994;2023-03-25T08:47:49;10.30;99.90
4324;DHT22;2175;51.018;6.994;2023-03-25T08:50:15;10.20;99.90
4324;DHT22;2175;51.018;6.994;2023-03-25T08:52:40;10.30;99.90
4324;DHT22;2175;51.018;6.994;2023-03-25T08:55:07;10.40;99.90
4324;DHT22;2175;51.018;6.994;2023-03-25T08:57:35;10.60;99.90
4324;DHT22;2175;51.018;6.994;2023-03-25T09:00:05;10.60;99.90
4324;DHT22;2175;51.018;6.994;2023-03-25T09:02:37;10.60;99.90
4324;DHT22;2175;51.018;6.994;2023-03-25T09:05:03;10.60;99.90
4324;DHT22;2175;51.018;6.994;2023-03-25T09:07:29;10.70;99.90
4324;DHT22;2175;51.018;6.994;2023-03-25T09:09:55;10.60;99.90
4324;DHT22;2175;51.018;6.994;2023-03-25T09:12:20;10.70;99.90
4324;DHT22;2175;51.018;6.994;2023-03-25T09:14:46;10.50;99.90
4324;DHT22;2175;51.018;6.994;2023-03-25T09:17:11;10.60;99.90
4324;DHT22;2175;51.018;6.994;2023-03-25T09:19:37;10.60;99.90
4324;DHT22;2175;51.018;6.994;2023-03-25T09:22:03;10.60;99.90
4324;DHT22;2175;51.018;6.994;2023-03-25T09:24:29;10.70;99.90
4324;DHT22;2175;51.018;6.994;2023-03-25T09:26:59;10.90;99.90
4324;DHT22;2175;51.018;6.994;2023-03-25T09:29:25;11.30;99.90
4324;DHT22;2175;51.018;6.994;2023-03-25T09:31:51;11.40;99.90
4324;DHT22;2175;51.018;6.994;2023-03-25T09:34:17;11.60;99.90
4324;DHT22;2175;51.018;6.994;2023-03-25T09:36:42;11.50;99.90
4324;DHT22;2175;51.018;6.994;2023-03-25T09:39:10;11.50;99.90
4324;DHT22;2175;51.018;6.994;2023-03-25T09:44:33;11.80;99.90
4324;DHT22;2175;51.018;6.994;2023-03-25T09:47:00;11.90;99.90
4324;DHT22;2175;51.018;6.994;2023-03-25T09:49:41;12.30;99.90
4324;DHT22;2175;51.018;6.994;2023-03-25T09:52:15;12.90;99.90
4324;DHT22;2175;51.018;6.994;2023-03-25T09:54:49;13.30;99.90
4324;DHT22;2175;51.018;6.994;2023-03-25T09:57:21;13.10;99.90
4324;DHT22;2175;51.018;6.994;2023-03-25T09:59:51;13.10;99.90
4324;DHT22;2175;51.018;6.994;2023-03-25T10:02:41;13.20;99.90
4324;DHT22;2175;51.018;6.994;2023-03-25T10:05:33;12.40;99.90
4324;DHT22;2175;51.018;6.994;2023-03-25T10:10:59;11.90;99.90
4324;DHT22;2175;51.018;6.994;2023-03-25T10:13:48;11.80;99.90
4324;DHT22;2175;51.018;6.994;2023-03-25T10:19:18;11.60;99.90
4324;DHT22;2175;51.018;6.994;2023-03-25T10:24:26;11.30;99.90
4324;DHT22;2175;51.018;6.994;2023-03-25T10:27:43;11.50;99.90
4324;DHT22;2175;51.018;6.994;2023-03-25T10:29:53;11.50;99.90
4324;DHT22;2175;51.018;6.994;2023-03-25T10:32:36;11.10;99.90
4324;DHT22;2175;51.018;6.994;2023-03-25T10:35:05;11.10;99.90
4324;DHT22;2175;51.018;6.994;2023-03-25T10:37:36;11.10;99.90
4324;DHT22;2175;51.018;6.994;2023-03-25T10:43:10;11.00;99.90
4324;DHT22;2175;51.018;6.994;2023-03-25T10:45:39;11.20;99.90
4324;DHT22;2175;51.018;6.994;2023-03-25T10:50:36;11.20;99.90
4324;DHT22;2175;51.018;6.994;2023-03-25T10:53:02;11.30;99.90
4324;DHT22;2175;51.018;6.994;2023-03-25T10:55:32;11.40;99.90
4324;DHT22;2175;51.018;6.994;2023-03-25T10:58:00;11.50;99.90
4324;DHT22;2175;51.018;6.994;2023-03-25T11:00:26;11.50;99.90
4324;DHT22;2175;51.018;6.994;2023-03-25T11:02:54;11.60;99.90
4324;DHT22;2175;51.018;6.994;2023-03-25T11:05:23;11.60;99.90
4324;DHT22;2175;51.018;6.994;2023-03-25T11:07:58;11.60;99.90
4324;DHT22;2175;51.018;6.994;2023-03-25T11:10:31;11.60;99.90
4324;DHT22;2175;51.018;6.994;2023-03-25T11:13:00;11.60;99.90
4324;DHT22;2175;51.018;6.994;2023-03-25T11:15:33;11.80;99.90
4324;DHT22;2175;51.018;6.994;2023-03-25T11:18:11;12.60;99.90
4324;DHT22;2175;51.018;6.994;2023-03-25T11:20:46;12.70;99.90
4324;DHT22;2175;51.018;6.994;2023-03-25T11:25:49;12.70;99.90
4324;DHT22;2175;51.018;6.994;2023-03-25T11:28:18;12.70;99.90
4324;DHT22;2175;51.018;6.994;2023-03-25T11:31:10;12.60;99.90
4324;DHT22;2175;51.018;6.994;2023-03-25T11:33:37;12.30;99.90
4324;DHT22;2175;51.018;6.994;2023-03-25T11:36:36;12.40;99.90
4324;DHT22;2175;51.018;6.994;2023-03-25T11:39:24;12.20;99.90
4324;DHT22;2175;51.018;6.994;2023-03-25T11:41:51;12.00;99.90
4324;DHT22;2175;51.018;6.994;2023-03-25T11:44:22;11.90;99.90
4324;DHT22;2175;51.018;6.994;2023-03-25T11:47:01;12.00;99.90
4324;DHT22;2175;51.018;6.994;2023-03-25T11:49:28;12.20;99.90
4324;DHT22;2175;51.018;6.994;2023-03-25T11:52:22;12.20;99.90
4324;DHT22;2175;51.018;6.994;2023-03-25T11:54:46;12.10;99.90
4324;DHT22;2175;51.018;6.994;2023-03-25T11:57:22;12.00;99.90
4324;DHT22;2175;51.018;6.994;2023-03-25T11:59:49;12.00;99.90
4324;DHT22;2175;51.018;6.994;2023-03-25T12:02:28;11.90;99.90
4324;DHT22;2175;51.018;6.994;2023-03-25T12:07:50;11.90;99.90
4324;DHT22;2175;51.018;6.994;2023-03-25T12:13:14;11.90;99.90
4324;DHT22;2175;51.018;6.994;2023-03-25T12:19:03;11.80;99.90
4324;DHT22;2175;51.018;6.994;2023-03-25T12:27:13;12.00;99.90
4324;DHT22;2175;51.018;6.994;2023-03-25T12:29:53;11.90;99.90
4324;DHT22;2175;51.018;6.994;2023-03-25T12:37:55;12.00;99.90
4324;DHT22;2175;51.018;6.994;2023-03-25T12:43:05;12.30;99.90
4324;DHT22;2175;51.018;6.994;2023-03-25T12:56:16;13.80;99.90
4324;DHT22;2175;51.018;6.994;2023-03-25T13:07:24;13.20;99.90
4324;DHT22;2175;51.018;6.994;2023-03-25T13:10:39;13.20;99.90
4324;DHT22;2175;51.018;6.994;2023-03-25T13:13:03;13.20;99.90
4324;DHT22;2175;51.018;6.994;2023-03-25T13:15:38;13.10;99.90
4324;DHT22;2175;51.018;6.994;2023-03-25T13:18:10;13.00;99.90
4324;DHT22;2175;51.018;6.994;2023-03-25T13:20:46;12.90;99.90
4324;DHT22;2175;51.018;6.994;2023-03-25T13:23:18;12.80;99.90
4324;DHT22;2175;51.018;6.994;2023-03-25T13:26:02;12.70;99.90
4324;DHT22;2175;51.018;6.994;2023-03-25T13:28:38;12.60;1.00
4324;DHT22;2175;51.018;6.994;2023-03-25T13:31:08;12.40;1.00
4324;DHT22;2175;51.018;6.994;2023-03-25T13:33:42;12.30;1.00
4324;DHT22;2175;51.018;6.994;2023-03-25T13:38:53;12.00;1.00
4324;DHT22;2175;51.018;6.994;2023-03-25T13:41:37;11.90;40.80
4324;DHT22;2175;51.018;6.994;2023-03-25T13:44:18;11.20;99.90
4324;DHT22;2175;51.018;6.994;2023-03-25T13:49:57;10.60;99.90
4324;DHT22;2175;51.018;6.994;2023-03-25T13:52:30;10.50;99.90
4324;DHT22;2175;51.018;6.994;2023-03-25T13:55:04;10.30;99.90
4324;DHT22;2175;51.018;6.994;2023-03-25T13:58:08;10.10;99.90
4324;DHT22;2175;51.018;6.994;2023-03-25T14:03:38;9.90;99.90
4324;DHT22;2175;51.018;6.994;2023-03-25T14:11:50;10.10;99.90
4324;DHT22;2175;51.018;6.994;2023-03-25T14:14:19;10.00;99.90
4324;DHT22;2175;51.018;6.994;2023-03-25T14:16:52;9.90;99.90
4324;DHT22;2175;51.018;6.994;2023-03-25T14:19:43;10.00;99.90
4324;DHT22;2175;51.018;6.994;2023-03-25T14:22:15;9.70;99.90
4324;DHT22;2175;51.018;6.994;2023-03-25T14:24:43;9.90;99.90
4324;DHT22;2175;51.018;6.994;2023-03-25T14:29:57;10.60;99.90
4324;DHT22;2175;51.018;6.994;2023-03-25T14:48:52;11.50;99.90
4324;DHT22;2175;51.018;6.994;2023-03-25T14:51:41;11.50;99.90
4324;DHT22;2175;51.018;6.994;2023-03-25T14:59:50;11.40;99.90
4324;DHT22;2175;51.018;6.994;2023-03-25T15:02:27;11.40;99.90
4324;DHT22;2175;51.018;6.994;2023-03-25T15:04:57;11.60;99.90
4324;DHT22;2175;51.018;6.994;2023-03-25T15:07:58;11.60;99.90
4324;DHT22;2175;51.018;6.994;2023-03-25T15:10:42;11.40;99.90
4324;DHT22;2175;51.018;6.994;2023-03-25T15:13:15;11.60;99.90
4324;DHT22;2175;51.018;6.994;2023-03-25T15:21:11;11.40;99.90
4324;DHT22;2175;51.018;6.994;2023-03-25T15:23:46;11.30;99.90
4324;DHT22;2175;51.018;6.994;2023-03-25T15:26:37;10.80;99.90
4324;DHT22;2175;51.018;6.994;2023-03-25T15:32:00;10.40;99.90
4324;DHT22;2175;51.018;6.994;2023-03-25T15:37:48;10.30;99.90
4324;DHT22;2175;51.018;6.994;2023-03-25T15:48:59;10.70;99.90
4324;DHT22;2175;51.018;6.994;2023-03-25T15:54:24;10.80;99.90
4324;DHT22;2175;51.018;6.994;2023-03-25T15:56:56;10.80;99.90
4324;DHT22;2175;51.018;6.994;2023-03-25T16:02:31;10.70;99.90
4324;DHT22;2175;51.018;6.994;2023-03-25T16:04:58;10.80;99.90
4324;DHT22;2175;51.018;6.994;2023-03-25T16:07:26;10.90;99.90
4324;DHT22;2175;51.018;6.994;2023-03-25T16:09:55;10.90;99.90
4324;DHT22;2175;51.018;6.994;2023-03-25T16:12:23;10.90;99.90
4324;DHT22;2175;51.018;6.994;2023-03-25T16:14:50;11.00;99.90
4324;DHT22;2175;51.018;6.994;2023-03-25T16:17:18;10.90;99.90
4324;DHT22;2175;51.018;6.994;2023-03-25T16:19:51;10.70;99.90
4324;DHT22;2175;51.018;6.994;2023-03-25T16:22:28;10.60;99.90
4324;DHT22;2175;51.018;6.994;2023-03-25T16:25:00;10.30;99.90
4324;DHT22;2175;51.018;6.994;2023-03-25T16:27:33;10.10;99.90
4324;DHT22;2175;51.018;6.994;2023-03-25T16:30:00;10.20;99.90
4324;DHT22;2175;51.018;6.994;2023-03-25T16:32:31;10.10;99.90
4324;DHT22;2175;51.018;6.994;2023-03-25T16:34:57;10.10;99.90
4324;DHT22;2175;51.018;6.994;2023-03-25T16:37:24;10.10;99.90
4324;DHT22;2175;51.018;6.994;2023-03-25T16:39:51;10.10;99.90
4324;DHT22;2175;51.018;6.994;2023-03-25T16:42:26;10.10;99.90
4324;DHT22;2175;51.018;6.994;2023-03-25T16:44:55;10.20;99.90
4324;DHT22;2175;51.018;6.994;2023-03-25T16:47:21;10.30;99.90
4324;DHT22;2175;51.018;6.994;2023-03-25T16:49:49;10.30;99.90
4324;DHT22;2175;51.018;6.994;2023-03-25T16:52:21;10.30;99.90
4324;DHT22;2175;51.018;6.994;2023-03-25T16:57:23;10.40;99.90
4324;DHT22;2175;51.018;6.994;2023-03-25T17:00:04;10.40;99.90
4324;DHT22;2175;51.018;6.994;2023-03-25T17:02:41;10.50;99.90
4324;DHT22;2175;51.018;6.994;2023-03-25T17:07:48;10.50;99.90
4324;DHT22;2175;51.018;6.994;2023-03-25T17:15:19;9.80;99.90
4324;DHT22;2175;51.018;6.994;2023-03-25T17:17:48;9.60;99.90
4324;DHT22;2175;51.018;6.994;2023-03-25T17:20:24;9.70;99.90
4324;DHT22;2175;51.018;6.994;2023-03-25T17:25:56;9.60;99.90
4324;DHT22;2175;51.018;6.994;2023-03-25T17:28:26;9.50;99.90
4324;DHT22;2175;51.018;6.994;2023-03-25T17:30:53;9.30;99.90
4324;DHT22;2175;51.018;6.994;2023-03-25T17:35:54;9.20;99.90
4324;DHT22;2175;51.018;6.994;2023-03-25T17:38:33;9.20;99.90
4324;DHT22;2175;51.018;6.994;2023-03-25T17:41:03;9.30;99.90
4324;DHT22;2175;51.018;6.994;2023-03-25T17:43:33;9.30;99.90
4324;DHT22;2175;51.018;6.994;2023-03-25T17:46:00;9.30;99.90
4324;DHT22;2175;51.018;6.994;2023-03-25T17:48:27;9.50;99.90
4324;DHT22;2175;51.018;6.994;2023-03-25T17:50:54;9.40;99.90
4324;DHT22;2175;51.018;6.994;2023-03-25T17:53:21;9.40;99.90
4324;DHT22;2175;51.018;6.994;2023-03-25T17:55:47;9.60;99.90
4324;DHT22;2175;51.018;6.994;2023-03-25T17:58:17;9.60;99.90
4324;DHT22;2175;51.018;6.994;2023-03-25T18:00:44;9.60;99.90
4324;DHT22;2175;51.018;6.994;2023-03-25T18:03:17;9.60;99.90
4324;DHT22;2175;51.018;6.994;2023-03-25T18:05:44;9.60;99.90
4324;DHT22;2175;51.018;6.994;2023-03-25T18:08:14;9.50;99.90
4324;DHT22;2175;51.018;6.994;2023-03-25T18:10:40;9.30;99.90
4324;DHT22;2175;51.018;6.994;2023-03-25T18:13:24;9.10;99.90
4324;DHT22;2175;51.018;6.994;2023-03-25T18:16:08;9.10;99.90
4324;DHT22;2175;51.018;6.994;2023-03-25T18:18:34;9.00;99.90
4324;DHT22;2175;51.018;6.994;2023-03-25T18:21:00;8.90;99.90
4324;DHT22;2175;51.018;6.994;2023-03-25T18:23:30;8.80;99.90
4324;DHT22;2175;51.018;6.994;2023-03-25T18:25:58;8.70;99.90
4324;DHT22;2175;51.018;6.994;2023-03-25T18:28:26;8.60;99.90
4324;DHT22;2175;51.018;6.994;2023-03-25T18:30:57;8.60;99.90
4324;DHT22;2175;51.018;6.994;2023-03-25T18:33:26;8.50;99.90
4324;DHT22;2175;51.018;6.994;2023-03-25T18:35:53;8.60;99.90
4324;DHT22;2175;51.018;6.994;2023-03-25T18:38:24;8.60;99.90
4324;DHT22;2175;51.018;6.994;2023-03-25T18:40:51;8.60;99.90
4324;DHT22;2175;51.018;6.994;2023-03-25T18:43:17;8.70;99.90
4324;DHT22;2175;51.018;6.994;2023-03-25T18:45:43;9.00;99.90
4324;DHT22;2175;51.018;6.994;2023-03-25T18:48:14;9.10;99.90
4324;DHT22;2175;51.018;6.994;2023-03-25T18:50:52;9.00;99.90
4324;DHT22;2175;51.018;6.994;2023-03-25T18:53:20;9.00;99.90
4324;DHT22;2175;51.018;6.994;2023-03-25T18:55:50;9.10;99.90
4324;DHT22;2175;51.018;6.994;2023-03-25T18:58:22;8.90;99.90
4324;DHT22;2175;51.018;6.994;2023-03-25T19:00:50;8.80;99.90
4324;DHT22;2175;51.018;6.994;2023-03-25T19:03:33;8.70;99.90
4324;DHT22;2175;51.018;6.994;2023-03-25T19:06:10;8.70;99.90
4324;DHT22;2175;51.018;6.994;2023-03-25T19:08:39;8.60;99.90
4324;DHT22;2175;51.018;6.994;2023-03-25T19:11:05;8.70;99.90
4324;DHT22;2175;51.018;6.994;2023-03-25T19:13:31;8.60;99.90
4324;DHT22;2175;51.018;6.994;2023-03-25T19:15:57;8.60;99.90
4324;DHT22;2175;51.018;6.994;2023-03-25T19:18:24;8.60;99.90
4324;DHT22;2175;51.018;6.994;2023-03-25T19:20:51;8.60;99.90
4324;DHT22;2175;51.018;6.994;2023-03-25T19:23:17;8.60;99.90
4324;DHT22;2175;51.018;6.994;2023-03-25T19:25:46;8.50;99.90
4324;DHT22;2175;51.018;6.994;2023-03-25T19:28:14;8.60;99.90
4324;DHT22;2175;51.018;6.994;2023-03-25T19:30:42;8.70;99.90